sensor_id;sensor_type;location;lat;lon;timestamp;pressure;altitude;pressure_sealevel;temperature;humidity
39455;BME280;25155;41.890;23.446;2023-03-20T00:00:29;92278.56;;;1.91;49.31
39455;BME280;25155;41.890;23.446;2023-03-20T00:02:57;92277.22;;;1.88;50.34
39455;BME280;25155;41.890;23.446;2023-03-20T00:05:26;92281.22;;;1.84;50.43
39455;BME280;25155;41.890;23.446;2023-03-20T00:07:55;92275.38;;;1.77;50.33
39455;BME280;25155;41.890;23.446;2023-03-20T00:10:35;92280.53;;;1.77;50.09
39455;BME280;25155;41.890;23.446;2023-03-20T00:13:04;92274.34;;;1.78;49.66
39455;BME280;25155;41.890;23.446;2023-03-20T00:15:35;92276.94;;;1.78;49.28
39455;BME280;25155;41.890;23.446;2023-03-20T00:18:05;92275.81;;;1.74;49.75
39455;BME280;25155;41.890;23.446;2023-03-20T00:20:37;92270.06;;;1.72;49.82
39455;BME280;25155;41.890;23.446;2023-03-20T00:23:05;92272.50;;;1.67;50.03
39455;BME280;25155;41.890;23.446;2023-03-20T00:25:34;92263.69;;;1.56;51.41
39455;BME280;25155;41.890;23.446;2023-03-20T00:28:02;92261.75;;;1.51;50.86
39455;BME280;25155;41.890;23.446;2023-03-20T00:30:29;92269.72;;;1.50;50.82
39455;BME280;25155;41.890;23.446;2023-03-20T00:32:57;92264.97;;;1.47;51.09
39455;BME280;25155;41.890;23.446;2023-03-20T00:35:26;92268.25;;;1.42;50.85
39455;BME280;25155;41.890;23.446;2023-03-20T00:37:55;92265.06;;;1.40;50.63
39455;BME280;25155;41.890;23.446;2023-03-20T00:40:27;92266.09;;;1.39;50.60
39455;BME280;25155;41.890;23.446;2023-03-20T00:42:59;92267.50;;;1.35;50.52
39455;BME280;25155;41.890;23.446;2023-03-20T00:45:30;92265.13;;;1.33;50.39
39455;BME280;25155;41.890;23.446;2023-03-20T00:47:58;92263.78;;;1.31;50.76
39455;BME280;25155;41.890;23.446;2023-03-20T00:50:28;92272.97;;;1.27;50.81
39455;BME280;25155;41.890;23.446;2023-03-20T00:52:57;92268.59;;;1.27;50.61
39455;BME280;25155;41.890;23.446;2023-03-20T00:55:27;92262.06;;;1.24;50.92
39455;BME280;25155;41.890;23.446;2023-03-20T00:57:58;92255.31;;;1.23;50.52
39455;BME280;25155;41.890;23.446;2023-03-20T01:00:35;92258.56;;;1.19;50.67
39455;BME280;25155;41.890;23.446;2023-03-20T01:03:11;92258.56;;;1.19;50.55
39455;BME280;25155;41.890;23.446;2023-03-20T01:05:39;92255.16;;;1.18;50.77
39455;BME280;25155;41.890;23.446;2023-03-20T01:08:12;92248.66;;;1.16;50.51
39455;BME280;25155;41.890;23.446;2023-03-20T01:10:42;92244.91;;;1.12;50.77
39455;BME280;25155;41.890;23.446;2023-03-20T01:13:17;92249.94;;;1.06;51.46
39455;BME280;25155;41.890;23.446;2023-03-20T01:15:46;92250.16;;;1.05;50.98
39455;BME280;25155;41.890;23.446;2023-03-20T01:18:15;92244.13;;;0.93;52.70
39455;BME280;25155;41.890;23.446;2023-03-20T01:20:43;92241.25;;;0.82;52.63
39455;BME280;25155;41.890;23.446;2023-03-20T01:23:11;92240.09;;;0.78;52.64
39455;BME280;25155;41.890;23.446;2023-03-20T01:25:39;92240.72;;;0.74;51.79
39455;BME280;25155;41.890;23.446;2023-03-20T01:28:15;92249.91;;;0.69;51.87
39455;BME280;25155;41.890;23.446;2023-03-20T01:30:44;92247.53;;;0.68;52.10
39455;BME280;25155;41.890;23.446;2023-03-20T01:33:13;92244.00;;;0.62;52.18
39455;BME280;25155;41.890;23.446;2023-03-20T01:35:42;92241.66;;;0.61;51.99
39455;BME280;25155;41.890;23.446;2023-03-20T01:38:15;92243.06;;;0.57;52.03
39455;BME280;25155;41.890;23.446;2023-03-20T01:40:51;92240.91;;;0.54;52.15
39455;BME280;25155;41.890;23.446;2023-03-20T01:43:24;92237.34;;;0.55;51.72
39455;BME280;25155;41.890;23.446;2023-03-20T01:45:59;92242.72;;;0.53;51.72
39455;BME280;25155;41.890;23.446;2023-03-20T01:48:53;92241.34;;;0.50;51.57
39455;BME280;25155;41.890;23.446;2023-03-20T01:51:23;92245.72;;;0.50;51.66
39455;BME280;25155;41.890;23.446;2023-03-20T01:53:54;92244.94;;;0.49;51.41
39455;BME280;25155;41.890;23.446;2023-03-20T01:56:24;92238.41;;;0.47;51.61
39455;BME280;25155;41.890;23.446;2023-03-20T01:58:59;92243.41;;;0.42;51.63
39455;BME280;25155;41.890;23.446;2023-03-20T02:01:30;92238.88;;;0.37;51.52
39455;BME280;25155;41.890;23.446;2023-03-20T02:03:57;92241.44;;;0.37;51.90
39455;BME280;25155;41.890;23.446;2023-03-20T02:06:26;92240.66;;;0.37;51.53
39455;BME280;25155;41.890;23.446;2023-03-20T02:08:54;92238.31;;;0.35;52.20
39455;BME280;25155;41.890;23.446;2023-03-20T02:11:23;92239.13;;;0.29;52.20
39455;BME280;25155;41.890;23.446;2023-03-20T02:13:53;92222.09;;;0.28;52.12
39455;BME280;25155;41.890;23.446;2023-03-20T02:16:22;92229.84;;;0.28;52.04
39455;BME280;25155;41.890;23.446;2023-03-20T02:18:51;92229.84;;;0.28;51.91
39455;BME280;25155;41.890;23.446;2023-03-20T02:22:14;92228.16;;;0.15;52.42
39455;BME280;25155;41.890;23.446;2023-03-20T02:25:25;92233.34;;;0.08;52.58
39455;BME280;25155;41.890;23.446;2023-03-20T02:28:36;92235.75;;;0.03;52.82
39455;BME280;25155;41.890;23.446;2023-03-20T02:31:30;92237.75;;;0.01;52.37
39455;BME280;25155;41.890;23.446;2023-03-20T02:40:27;92231.47;;;-0.10;52.40
39455;BME280;25155;41.890;23.446;2023-03-20T02:43:02;92225.34;;;-0.09;52.50
39455;BME280;25155;41.890;23.446;2023-03-20T02:45:42;92231.47;;;-0.10;52.19
39455;BME280;25155;41.890;23.446;2023-03-20T02:48:15;92227.31;;;-0.11;52.78
39455;BME280;25155;41.890;23.446;2023-03-20T02:50:51;92237.06;;;-0.13;52.42
39455;BME280;25155;41.890;23.446;2023-03-20T02:53:34;92231.53;;;-0.16;52.35
39455;BME280;25155;41.890;23.446;2023-03-20T02:56:12;92235.50;;;-0.20;52.73
39455;BME280;25155;41.890;23.446;2023-03-20T02:58:48;92232.34;;;-0.23;52.54
39455;BME280;25155;41.890;23.446;2023-03-20T03:01:20;92236.94;;;-0.25;52.64
39455;BME280;25155;41.890;23.446;2023-03-20T03:03:50;92230.19;;;-0.26;52.85
39455;BME280;25155;41.890;23.446;2023-03-20T03:06:25;92229.81;;;-0.29;52.67
39455;BME280;25155;41.890;23.446;2023-03-20T03:09:00;92225.88;;;-0.32;52.61
39455;BME280;25155;41.890;23.446;2023-03-20T03:11:33;92230.88;;;-0.37;52.54
39455;BME280;25155;41.890;23.446;2023-03-20T03:14:03;92230.88;;;-0.37;52.96
39455;BME280;25155;41.890;23.446;2023-03-20T03:16:33;92226.13;;;-0.40;53.26
39455;BME280;25155;41.890;23.446;2023-03-20T03:19:06;92228.53;;;-0.45;53.41
39455;BME280;25155;41.890;23.446;2023-03-20T03:21:36;92222.19;;;-0.49;53.33
39455;BME280;25155;41.890;23.446;2023-03-20T03:24:22;92225.34;;;-0.47;53.33
39455;BME280;25155;41.890;23.446;2023-03-20T03:26:50;92228.94;;;-0.48;53.49
39455;BME280;25155;41.890;23.446;2023-03-20T03:29:18;92219.63;;;-0.49;53.43
39455;BME280;25155;41.890;23.446;2023-03-20T03:31:48;92226.41;;;-0.55;53.27
39455;BME280;25155;41.890;23.446;2023-03-20T03:34:16;92229.19;;;-0.56;53.20
39455;BME280;25155;41.890;23.446;2023-03-20T03:36:48;92230.00;;;-0.63;52.89
39455;BME280;25155;41.890;23.446;2023-03-20T03:39:25;92232.19;;;-0.66;53.35
39455;BME280;25155;41.890;23.446;2023-03-20T03:42:00;92231.22;;;-0.72;53.58
39455;BME280;25155;41.890;23.446;2023-03-20T03:44:34;92227.88;;;-0.79;53.67
39455;BME280;25155;41.890;23.446;2023-03-20T03:47:05;92222.38;;;-0.83;53.34
39455;BME280;25155;41.890;23.446;2023-03-20T03:49:36;92228.28;;;-0.82;53.53
39455;BME280;25155;41.890;23.446;2023-03-20T03:52:09;92227.72;;;-0.84;53.47
39455;BME280;25155;41.890;23.446;2023-03-20T03:54:43;92226.94;;;-0.85;53.32
39455;BME280;25155;41.890;23.446;2023-03-20T03:57:17;92227.13;;;-0.86;53.32
39455;BME280;25155;41.890;23.446;2023-03-20T03:59:49;92232.09;;;-0.91;53.63
39455;BME280;25155;41.890;23.446;2023-03-20T04:02:19;92234.47;;;-0.97;53.60
39455;BME280;25155;41.890;23.446;2023-03-20T04:04:50;92232.91;;;-0.98;53.71
39455;BME280;25155;41.890;23.446;2023-03-20T04:07:19;92236.25;;;-0.97;53.59
39455;BME280;25155;41.890;23.446;2023-03-20T04:09:49;92228.75;;;-0.99;53.54
39455;BME280;25155;41.890;23.446;2023-03-20T04:12:34;92228.16;;;-1.01;53.57
39455;BME280;25155;41.890;23.446;2023-03-20T04:15:02;92228.75;;;-0.99;53.68
39455;BME280;25155;41.890;23.446;2023-03-20T04:17:30;92231.31;;;-0.99;53.65
39455;BME280;25155;41.890;23.446;2023-03-20T04:19:57;92234.28;;;-1.02;53.48
39455;BME280;25155;41.890;23.446;2023-03-20T04:22:24;92227.81;;;-1.11;54.86
39455;BME280;25155;41.890;23.446;2023-03-20T04:24:53;92228.41;;;-1.16;54.59
39455;BME280;25155;41.890;23.446;2023-03-20T04:27:20;92229.19;;;-1.15;54.53
39455;BME280;25155;41.890;23.446;2023-03-20T04:29:47;92230.97;;;-1.16;54.45
39455;BME280;25155;41.890;23.446;2023-03-20T04:32:14;92234.31;;;-1.15;54.24
39455;BME280;25155;41.890;23.446;2023-03-20T04:34:42;92239.66;;;-1.17;54.69
39455;BME280;25155;41.890;23.446;2023-03-20T04:37:10;92235.94;;;-1.21;55.13
39455;BME280;25155;41.890;23.446;2023-03-20T04:39:37;92230.00;;;-1.21;54.74
39455;BME280;25155;41.890;23.446;2023-03-20T04:42:09;92231.97;;;-1.23;54.48
39455;BME280;25155;41.890;23.446;2023-03-20T04:44:37;92235.16;;;-1.21;54.56
39455;BME280;25155;41.890;23.446;2023-03-20T04:47:04;92241.09;;;-1.27;55.24
39455;BME280;25155;41.890;23.446;2023-03-20T04:49:32;92237.50;;;-1.26;55.16
39455;BME280;25155;41.890;23.446;2023-03-20T04:51:59;92237.31;;;-1.25;54.86
39455;BME280;25155;41.890;23.446;2023-03-20T04:54:27;92236.34;;;-1.24;54.73
39455;BME280;25155;41.890;23.446;2023-03-20T04:56:54;92236.13;;;-1.22;54.28
39455;BME280;25155;41.890;23.446;2023-03-20T04:59:23;92236.91;;;-1.22;54.29
39455;BME280;25155;41.890;23.446;2023-03-20T05:01:51;92238.31;;;-1.19;54.64
39455;BME280;25155;41.890;23.446;2023-03-20T05:04:18;92235.34;;;-1.16;54.53
39455;BME280;25155;41.890;23.446;2023-03-20T05:06:46;92236.69;;;-1.13;54.64
39455;BME280;25155;41.890;23.446;2023-03-20T05:09:14;92237.91;;;-1.16;54.45
39455;BME280;25155;41.890;23.446;2023-03-20T05:11:41;92237.88;;;-1.09;54.55
39455;BME280;25155;41.890;23.446;2023-03-20T05:14:08;92241.03;;;-1.07;54.50
39455;BME280;25155;41.890;23.446;2023-03-20T05:16:38;92240.66;;;-1.04;54.58
39455;BME280;25155;41.890;23.446;2023-03-20T05:19:06;92241.81;;;-1.00;54.32
39455;BME280;25155;41.890;23.446;2023-03-20T05:21:33;92238.63;;;-0.95;54.59
39455;BME280;25155;41.890;23.446;2023-03-20T05:24:01;92246.16;;;-0.94;54.75
39455;BME280;25155;41.890;23.446;2023-03-20T05:26:28;92242.19;;;-0.90;54.58
39455;BME280;25155;41.890;23.446;2023-03-20T05:28:55;92242.78;;;-0.88;54.30
39455;BME280;25155;41.890;23.446;2023-03-20T05:31:22;92244.13;;;-0.85;54.69
39455;BME280;25155;41.890;23.446;2023-03-20T05:33:51;92248.28;;;-0.84;54.98
39455;BME280;25155;41.890;23.446;2023-03-20T05:36:18;92247.50;;;-0.78;54.49
39455;BME280;25155;41.890;23.446;2023-03-20T05:38:46;92243.31;;;-0.72;54.86
39455;BME280;25155;41.890;23.446;2023-03-20T05:41:13;92245.25;;;-0.68;55.13
39455;BME280;25155;41.890;23.446;2023-03-20T05:43:40;92246.41;;;-0.64;55.26
39455;BME280;25155;41.890;23.446;2023-03-20T05:46:07;92253.75;;;-0.61;55.71
39455;BME280;25155;41.890;23.446;2023-03-20T05:48:35;92250.34;;;-0.54;56.63
39455;BME280;25155;41.890;23.446;2023-03-20T05:51:05;92261.47;;;-0.61;58.30
39455;BME280;25155;41.890;23.446;2023-03-20T05:53:32;92256.91;;;-0.65;59.25
39455;BME280;25155;41.890;23.446;2023-03-20T05:56:00;92267.41;;;-0.67;59.41
39455;BME280;25155;41.890;23.446;2023-03-20T05:58:27;92261.28;;;-0.66;59.57
39455;BME280;25155;41.890;23.446;2023-03-20T06:00:56;92259.28;;;-0.64;59.35
39455;BME280;25155;41.890;23.446;2023-03-20T06:03:23;92263.03;;;-0.53;59.17
39455;BME280;25155;41.890;23.446;2023-03-20T06:05:51;92253.84;;;-0.42;58.88
39455;BME280;25155;41.890;23.446;2023-03-20T06:08:19;92261.13;;;-0.32;58.27
39455;BME280;25155;41.890;23.446;2023-03-20T06:10:49;92261.25;;;-0.20;58.42
39455;BME280;25155;41.890;23.446;2023-03-20T06:13:16;92253.09;;;-0.11;58.91
39455;BME280;25155;41.890;23.446;2023-03-20T06:15:43;92246.16;;;-0.10;59.97
39455;BME280;25155;41.890;23.446;2023-03-20T06:18:10;92248.53;;;-0.09;59.95
39455;BME280;25155;41.890;23.446;2023-03-20T06:20:38;92251.84;;;-0.01;60.10
39455;BME280;25155;41.890;23.446;2023-03-20T06:23:06;92246.84;;;0.04;60.93
39455;BME280;25155;41.890;23.446;2023-03-20T06:25:34;92239.69;;;0.06;61.46
39455;BME280;25155;41.890;23.446;2023-03-20T06:28:03;92238.81;;;0.19;61.06
39455;BME280;25155;41.890;23.446;2023-03-20T06:30:30;92242.28;;;0.31;60.48
39455;BME280;25155;41.890;23.446;2023-03-20T06:32:57;92237.03;;;0.44;60.36
39455;BME280;25155;41.890;23.446;2023-03-20T06:35:24;92226.22;;;0.54;61.10
39455;BME280;25155;41.890;23.446;2023-03-20T06:37:55;92235.28;;;0.63;60.97
39455;BME280;25155;41.890;23.446;2023-03-20T06:40:23;92228.19;;;0.77;61.29
39455;BME280;25155;41.890;23.446;2023-03-20T06:42:53;92232.72;;;0.82;61.71
39455;BME280;25155;41.890;23.446;2023-03-20T06:45:21;92226.16;;;0.86;61.75
39455;BME280;25155;41.890;23.446;2023-03-20T06:47:49;92230.00;;;0.95;61.68
39455;BME280;25155;41.890;23.446;2023-03-20T06:50:16;92235.69;;;1.04;61.33
39455;BME280;25155;41.890;23.446;2023-03-20T06:52:43;92225.72;;;1.07;61.75
39455;BME280;25155;41.890;23.446;2023-03-20T06:55:10;92226.91;;;1.23;61.79
39455;BME280;25155;41.890;23.446;2023-03-20T06:57:38;92229.34;;;1.37;61.62
39455;BME280;25155;41.890;23.446;2023-03-20T07:00:08;92234.59;;;1.49;60.88
39455;BME280;25155;41.890;23.446;2023-03-20T07:02:36;92231.63;;;1.64;60.80
39455;BME280;25155;41.890;23.446;2023-03-20T07:05:03;92229.97;;;1.81;60.83
39455;BME280;25155;41.890;23.446;2023-03-20T07:07:31;92220.59;;;1.98;60.48
39455;BME280;25155;41.890;23.446;2023-03-20T07:09:58;92224.09;;;2.16;60.06
39455;BME280;25155;41.890;23.446;2023-03-20T07:12:26;92222.47;;;2.33;59.79
39455;BME280;25155;41.890;23.446;2023-03-20T07:14:53;92223.38;;;2.51;59.50
39455;BME280;25155;41.890;23.446;2023-03-20T07:17:23;92216.06;;;2.60;58.46
39455;BME280;25155;41.890;23.446;2023-03-20T07:19:51;92220.00;;;2.74;58.64
39455;BME280;25155;41.890;23.446;2023-03-20T07:22:21;92219.00;;;2.99;58.77
39455;BME280;25155;41.890;23.446;2023-03-20T07:24:49;92211.22;;;3.22;58.02
39455;BME280;25155;41.890;23.446;2023-03-20T07:27:16;92206.88;;;3.40;57.64
39455;BME280;25155;41.890;23.446;2023-03-20T07:29:43;92209.84;;;3.60;56.65
39455;BME280;25155;41.890;23.446;2023-03-20T07:32:10;92202.50;;;3.69;56.64
39455;BME280;25155;41.890;23.446;2023-03-20T07:34:39;92208.97;;;3.83;56.01
39455;BME280;25155;41.890;23.446;2023-03-20T07:37:06;92205.06;;;3.98;56.41
39455;BME280;25155;41.890;23.446;2023-03-20T07:39:33;92201.63;;;4.09;56.39
39455;BME280;25155;41.890;23.446;2023-03-20T07:42:01;92203.97;;;4.28;56.70
39455;BME280;25155;41.890;23.446;2023-03-20T07:44:28;92196.69;;;4.42;56.19
39455;BME280;25155;41.890;23.446;2023-03-20T07:46:55;92195.56;;;4.54;55.73
39455;BME280;25155;41.890;23.446;2023-03-20T07:49:22;92201.88;;;4.58;55.23
39455;BME280;25155;41.890;23.446;2023-03-20T07:51:52;92201.63;;;4.60;54.58
39455;BME280;25155;41.890;23.446;2023-03-20T07:54:22;92191.56;;;4.64;55.18
39455;BME280;25155;41.890;23.446;2023-03-20T07:56:49;92185.41;;;4.70;54.88
39455;BME280;25155;41.890;23.446;2023-03-20T07:59:18;92199.06;;;4.82;53.84
39455;BME280;25155;41.890;23.446;2023-03-20T08:01:45;92198.91;;;4.89;53.55
39455;BME280;25155;41.890;23.446;2023-03-20T08:04:12;92197.00;;;5.01;52.80
39455;BME280;25155;41.890;23.446;2023-03-20T08:06:39;92192.84;;;5.22;52.95
39455;BME280;25155;41.890;23.446;2023-03-20T08:09:09;92184.19;;;5.39;52.45
39455;BME280;25155;41.890;23.446;2023-03-20T08:11:37;92189.09;;;5.57;52.54
39455;BME280;25155;41.890;23.446;2023-03-20T08:14:04;92167.19;;;5.75;52.29
39455;BME280;25155;41.890;23.446;2023-03-20T08:16:31;92176.75;;;5.97;51.73
39455;BME280;25155;41.890;23.446;2023-03-20T08:18:58;92176.66;;;6.14;50.63
39455;BME280;25155;41.890;23.446;2023-03-20T08:21:27;92178.28;;;6.25;50.40
39455;BME280;25155;41.890;23.446;2023-03-20T08:23:54;92175.31;;;6.38;49.67
39455;BME280;25155;41.890;23.446;2023-03-20T08:26:24;92173.78;;;6.48;49.50
39455;BME280;25155;41.890;23.446;2023-03-20T08:28:51;92175.22;;;6.66;50.04
39455;BME280;25155;41.890;23.446;2023-03-20T08:31:18;92168.06;;;6.88;50.36
39455;BME280;25155;41.890;23.446;2023-03-20T08:33:46;92171.59;;;7.14;50.11
39455;BME280;25155;41.890;23.446;2023-03-20T08:36:13;92169.09;;;7.35;49.61
39455;BME280;25155;41.890;23.446;2023-03-20T08:38:41;92168.13;;;7.51;47.07
39455;BME280;25155;41.890;23.446;2023-03-20T08:41:09;92164.25;;;7.59;46.43
39455;BME280;25155;41.890;23.446;2023-03-20T08:43:37;92162.19;;;7.77;47.70
39455;BME280;25155;41.890;23.446;2023-03-20T08:46:05;92161.44;;;8.02;47.54
39455;BME280;25155;41.890;23.446;2023-03-20T08:48:32;92146.84;;;8.11;45.94
39455;BME280;25155;41.890;23.446;2023-03-20T08:50:59;92156.00;;;8.24;45.35
39455;BME280;25155;41.890;23.446;2023-03-20T08:53:27;92155.72;;;8.36;45.79
39455;BME280;25155;41.890;23.446;2023-03-20T08:55:54;92158.06;;;8.48;44.89
39455;BME280;25155;41.890;23.446;2023-03-20T08:58:22;92147.09;;;8.56;44.82
39455;BME280;25155;41.890;23.446;2023-03-20T09:00:50;92149.19;;;8.64;44.65
39455;BME280;25155;41.890;23.446;2023-03-20T09:03:19;92143.66;;;8.76;44.80
39455;BME280;25155;41.890;23.446;2023-03-20T09:05:48;92148.88;;;8.91;45.64
39455;BME280;25155;41.890;23.446;2023-03-20T09:08:17;92145.19;;;9.08;45.06
39455;BME280;25155;41.890;23.446;2023-03-20T09:10:46;92137.59;;;9.16;44.66
39455;BME280;25155;41.890;23.446;2023-03-20T09:13:13;92139.13;;;9.33;44.08
39455;BME280;25155;41.890;23.446;2023-03-20T09:15:41;92136.47;;;9.38;42.73
39455;BME280;25155;41.890;23.446;2023-03-20T09:18:10;92135.13;;;9.46;43.94
39455;BME280;25155;41.890;23.446;2023-03-20T09:20:37;92128.22;;;9.65;44.12
39455;BME280;25155;41.890;23.446;2023-03-20T09:23:04;92127.09;;;9.82;43.92
39455;BME280;25155;41.890;23.446;2023-03-20T09:25:31;92120.97;;;9.97;42.86
39455;BME280;25155;41.890;23.446;2023-03-20T09:27:58;92123.78;;;10.05;42.63
39455;BME280;25155;41.890;23.446;2023-03-20T09:30:25;92119.00;;;10.18;42.83
39455;BME280;25155;41.890;23.446;2023-03-20T09:32:52;92117.81;;;10.39;43.67
39455;BME280;25155;41.890;23.446;2023-03-20T09:35:21;92106.19;;;10.51;40.60
39455;BME280;25155;41.890;23.446;2023-03-20T09:37:48;92099.81;;;10.57;40.74
39455;BME280;25155;41.890;23.446;2023-03-20T09:40:24;92090.59;;;10.64;41.75
39455;BME280;25155;41.890;23.446;2023-03-20T09:43:00;92086.00;;;10.80;42.53
39455;BME280;25155;41.890;23.446;2023-03-20T09:45:41;92084.78;;;10.97;41.10
39455;BME280;25155;41.890;23.446;2023-03-20T09:48:15;92073.66;;;11.05;40.33
39455;BME280;25155;41.890;23.446;2023-03-20T09:50:53;92074.81;;;11.18;40.05
39455;BME280;25155;41.890;23.446;2023-03-20T09:53:28;92075.41;;;11.34;40.94
39455;BME280;25155;41.890;23.446;2023-03-20T09:55:57;92065.72;;;11.53;40.05
39455;BME280;25155;41.890;23.446;2023-03-20T09:58:30;92065.31;;;11.65;39.85
39455;BME280;25155;41.890;23.446;2023-03-20T10:01:00;92059.91;;;11.75;38.70
39455;BME280;25155;41.890;23.446;2023-03-20T10:03:34;92060.56;;;11.86;39.65
39455;BME280;25155;41.890;23.446;2023-03-20T10:06:08;92052.72;;;12.00;39.75
39455;BME280;25155;41.890;23.446;2023-03-20T10:08:38;92053.00;;;12.18;37.68
39455;BME280;25155;41.890;23.446;2023-03-20T10:11:19;92049.41;;;12.27;37.97
39455;BME280;25155;41.890;23.446;2023-03-20T10:14:01;92036.03;;;12.43;38.37
39455;BME280;25155;41.890;23.446;2023-03-20T10:16:40;92033.69;;;12.55;37.64
39455;BME280;25155;41.890;23.446;2023-03-20T10:19:18;92027.94;;;12.67;35.80
39455;BME280;25155;41.890;23.446;2023-03-20T10:21:53;92018.06;;;12.78;37.54
39455;BME280;25155;41.890;23.446;2023-03-20T10:24:27;92024.59;;;12.94;36.77
39455;BME280;25155;41.890;23.446;2023-03-20T10:26:54;92018.81;;;12.64;34.99
39455;BME280;25155;41.890;23.446;2023-03-20T10:29:32;92014.19;;;12.89;35.15
39455;BME280;25155;41.890;23.446;2023-03-20T10:32:07;92006.25;;;13.03;34.22
39455;BME280;25155;41.890;23.446;2023-03-20T10:34:53;92005.94;;;13.18;34.96
39455;BME280;25155;41.890;23.446;2023-03-20T10:37:45;92003.53;;;13.22;32.22
39455;BME280;25155;41.890;23.446;2023-03-20T10:40:25;91996.09;;;13.24;32.13
39455;BME280;25155;41.890;23.446;2023-03-20T10:42:56;91991.09;;;13.36;32.67
39455;BME280;25155;41.890;23.446;2023-03-20T10:45:36;91988.13;;;13.15;32.85
39455;BME280;25155;41.890;23.446;2023-03-20T10:48:09;91975.00;;;13.52;32.38
39455;BME280;25155;41.890;23.446;2023-03-20T10:50:43;91973.56;;;13.68;32.06
39455;BME280;25155;41.890;23.446;2023-03-20T10:53:21;91968.53;;;13.81;31.00
39455;BME280;25155;41.890;23.446;2023-03-20T10:55:53;91962.44;;;13.94;30.94
39455;BME280;25155;41.890;23.446;2023-03-20T10:58:25;91956.75;;;14.01;31.26
39455;BME280;25155;41.890;23.446;2023-03-20T11:00:55;91948.88;;;14.09;30.68
39455;BME280;25155;41.890;23.446;2023-03-20T11:03:26;91946.03;;;14.20;30.37
39455;BME280;25155;41.890;23.446;2023-03-20T11:05:58;91953.50;;;14.26;31.30
39455;BME280;25155;41.890;23.446;2023-03-20T11:08:34;91940.47;;;14.30;30.49
39455;BME280;25155;41.890;23.446;2023-03-20T11:11:03;91933.06;;;14.41;30.75
39455;BME280;25155;41.890;23.446;2023-03-20T11:13:33;91932.31;;;14.49;31.05
39455;BME280;25155;41.890;23.446;2023-03-20T11:16:17;91926.59;;;14.56;30.96
39455;BME280;25155;41.890;23.446;2023-03-20T11:18:46;91916.59;;;14.75;32.12
39455;BME280;25155;41.890;23.446;2023-03-20T11:21:19;91914.19;;;14.96;31.19
39455;BME280;25155;41.890;23.446;2023-03-20T11:23:48;91906.13;;;15.19;32.16
39455;BME280;25155;41.890;23.446;2023-03-20T11:26:18;91903.03;;;15.34;31.88
39455;BME280;25155;41.890;23.446;2023-03-20T11:28:50;91897.09;;;15.55;31.59
39455;BME280;25155;41.890;23.446;2023-03-20T11:31:23;91893.19;;;15.70;30.46
39455;BME280;25155;41.890;23.446;2023-03-20T11:33:59;91890.56;;;15.78;28.52
39455;BME280;25155;41.890;23.446;2023-03-20T11:36:28;91886.38;;;15.86;30.40
39455;BME280;25155;41.890;23.446;2023-03-20T11:39:05;91877.94;;;16.02;32.03
39455;BME280;25155;41.890;23.446;2023-03-20T11:41:33;91877.25;;;16.22;29.49
39455;BME280;25155;41.890;23.446;2023-03-20T11:44:00;91868.34;;;16.35;30.12
39455;BME280;25155;41.890;23.446;2023-03-20T11:46:27;91854.75;;;16.46;30.37
39455;BME280;25155;41.890;23.446;2023-03-20T11:49:04;91854.66;;;16.63;30.82
39455;BME280;25155;41.890;23.446;2023-03-20T11:51:32;91844.31;;;16.79;29.67
39455;BME280;25155;41.890;23.446;2023-03-20T11:54:03;91848.44;;;16.89;29.64
39455;BME280;25155;41.890;23.446;2023-03-20T11:56:32;91849.81;;;16.95;27.47
39455;BME280;25155;41.890;23.446;2023-03-20T11:59:03;91844.66;;;16.99;28.30
39455;BME280;25155;41.890;23.446;2023-03-20T12:01:39;91831.16;;;17.13;29.12
39455;BME280;25155;41.890;23.446;2023-03-20T12:04:12;91834.44;;;17.31;29.33
39455;BME280;25155;41.890;23.446;2023-03-20T12:06:46;91832.72;;;17.47;29.91
39455;BME280;25155;41.890;23.446;2023-03-20T12:09:41;91834.84;;;17.54;28.50
39455;BME280;25155;41.890;23.446;2023-03-20T12:12:18;91838.66;;;17.65;29.15
39455;BME280;25155;41.890;23.446;2023-03-20T12:14:53;91828.56;;;17.79;29.92
39455;BME280;25155;41.890;23.446;2023-03-20T12:17:39;91821.41;;;17.92;29.63
39455;BME280;25155;41.890;23.446;2023-03-20T12:20:31;91819.34;;;18.10;31.25
39455;BME280;25155;41.890;23.446;2023-03-20T12:23:09;91818.03;;;18.29;30.58
39455;BME280;25155;41.890;23.446;2023-03-20T12:25:43;91808.50;;;18.40;30.92
39455;BME280;25155;41.890;23.446;2023-03-20T12:28:18;91809.63;;;18.51;30.79
39455;BME280;25155;41.890;23.446;2023-03-20T12:30:56;91809.63;;;18.64;30.61
39455;BME280;25155;41.890;23.446;2023-03-20T12:33:46;91809.59;;;18.76;31.31
39455;BME280;25155;41.890;23.446;2023-03-20T12:36:17;91803.16;;;18.89;30.49
39455;BME280;25155;41.890;23.446;2023-03-20T12:38:48;91795.84;;;18.99;30.11
39455;BME280;25155;41.890;23.446;2023-03-20T12:41:23;91790.53;;;18.99;27.55
39455;BME280;25155;41.890;23.446;2023-03-20T12:44:13;91790.13;;;18.84;27.59
39455;BME280;25155;41.890;23.446;2023-03-20T12:46:42;91796.16;;;18.56;29.02
39455;BME280;25155;41.890;23.446;2023-03-20T12:49:23;91783.81;;;18.89;26.62
39455;BME280;25155;41.890;23.446;2023-03-20T12:52:02;91781.47;;;19.00;25.35
39455;BME280;25155;41.890;23.446;2023-03-20T12:54:46;91770.88;;;18.87;25.33
39455;BME280;25155;41.890;23.446;2023-03-20T12:57:23;91774.41;;;18.91;26.31
39455;BME280;25155;41.890;23.446;2023-03-20T13:00:09;91770.69;;;19.08;27.74
39455;BME280;25155;41.890;23.446;2023-03-20T13:02:47;91766.88;;;19.22;25.55
39455;BME280;25155;41.890;23.446;2023-03-20T13:05:30;91754.81;;;19.24;24.47
39455;BME280;25155;41.890;23.446;2023-03-20T13:08:17;91764.56;;;19.33;26.20
39455;BME280;25155;41.890;23.446;2023-03-20T13:10:55;91763.81;;;19.48;25.44
39455;BME280;25155;41.890;23.446;2023-03-20T13:13:32;91758.31;;;19.57;24.03
39455;BME280;25155;41.890;23.446;2023-03-20T13:16:11;91759.31;;;19.36;23.04
39455;BME280;25155;41.890;23.446;2023-03-20T13:18:51;91752.84;;;19.21;24.66
39455;BME280;25155;41.890;23.446;2023-03-20T13:21:28;91751.53;;;19.15;23.84
39455;BME280;25155;41.890;23.446;2023-03-20T13:26:58;91747.34;;;18.73;23.37